METAR Data
IDs: Format: Raw Decoded Include TAF

Data at: 0721 UTC 18 Sep 2021

LRTR 180700Z 26005KT 9999 BKN010 14/13 Q1014